KERY

Luce County Airport

Newberry, Michigan, USA
METAR KERY 212315Z AUTO 31007G17KT 2 1/2SM BR OVC005 14/13 A2990 RMK AO2 T01370132
Observed Flight Rules
Aug-21 @ 23:15 UTC (30 minutes ago) Instrument Flight Rules
Wind Visibility Clouds Conditions
310° at 7 knots
 Gusting to 17 knots
2 1/2 miles
  • Overcast at 500' AGL
  • Mist
Temperatures Readings
Current 14°C / 57°F
Dewpoint 13°C / 55°F
Humidity 94%
Altimeter 29.9" Hg
Pressure 1013 hPa
Elevation 265
METAR KERY 212315Z AUTO 31007G17KT 2 1/2SM BR OVC005 14/13 A2990 RMK AO2 T01370132
Observed Flight Rules
Aug-21 @ 23:15 UTC
(30 minutes ago)
IFR
Wind Visibility
310° at 7 knots
 Gusting to 17 knots
2 1/2 miles
Clouds
  • Overcast at 500' AGL
Conditions
  • Mist
Temperature Dewpoint
14°C / 57°F 13°C / 55°F
Humidity Altimeter Pressure
94% 29.9" Hg 1013 hPa